Franconia, Virginia
Current Conditions -  °F | °C
As of 5:56 AM on Wednesday 22 Oct 2014 (Local Time) from KDAA Reporting Station
Light Rain Light Rain  
Wind Chill: 53°   Ceiling: 5600
Heat Index: 53°   Visibility: 6mi
Dew Point: 50°   Wind: 8mph
Humidity: 91%   Direction: 320°NW
Pressure: 29.88"   Gusts: NA
Location:  38.78°N, 77.15°W
Report Text: KDAA 220956Z 32007KT 6SM BR -RA FEW011 SCT024 OVC056 12/10 A2988 RMK A02 FEW V SCT SLP120 P0009 T01160102
Loading
Personal Weather Stations






























Interactive Weather Map
Tropical Storm Tracking
New forecast layout! Learn more

10-Day Weather Forecast

Advertisements
Track Severe Weather on mobile